Time,TemperatureF,DewpointF,PressureIn,WindDirection,WindDirectionDegrees,WindSpeedMPH,WindSpeedGustMPH,Humidity,HourlyPrecipIn,Conditions,Clouds,dailyrainin,SoftwareType,DateUTC
2013-07-09 00:02:00,67.8,62.8,29.81,SSW,205,0.0,2.9,84,0.00,,,0.00,meteobridge,2013-07-09 06:02:00,
2013-07-09 00:07:00,67.8,62.4,29.81,South,176,2.0,4.0,83,0.00,,,0.00,meteobridge,2013-07-09 06:07:00,
2013-07-09 00:12:00,67.8,62.4,29.81,SE,130,2.0,4.0,83,0.00,,,0.00,meteobridge,2013-07-09 06:12:00,
2013-07-09 00:17:00,68.2,62.4,29.82,SE,144,0.0,4.0,82,0.00,,,0.00,meteobridge,2013-07-09 06:17:00,
2013-07-09 00:22:00,68.4,62.2,29.82,SSE,155,0.9,4.0,81,0.00,,,0.00,meteobridge,2013-07-09 06:22:00,
2013-07-09 00:27:00,68.5,61.7,29.82,SE,146,2.9,2.9,79,0.00,,,0.00,meteobridge,2013-07-09 06:27:00,
2013-07-09 00:32:00,68.5,61.7,29.81,SSE,155,2.0,4.0,79,0.00,,,0.00,meteobridge,2013-07-09 06:32:00,
2013-07-09 00:37:00,68.7,61.2,29.81,SE,136,0.9,4.0,77,0.00,,,0.00,meteobridge,2013-07-09 06:37:00,
2013-07-09 00:42:00,68.7,61.2,29.81,SSE,147,0.9,4.0,77,0.00,,,0.00,meteobridge,2013-07-09 06:42:00,
2013-07-09 00:47:00,68.5,61.3,29.81,SSE,158,0.0,2.9,78,0.00,,,0.00,meteobridge,2013-07-09 06:47:00,
2013-07-09 00:52:00,68.4,61.5,29.80,SSE,167,0.9,2.9,79,0.00,,,0.00,meteobridge,2013-07-09 06:52:00,
2013-07-09 00:57:00,68.5,61.3,29.81,SSE,147,2.9,2.9,78,0.00,,,0.00,meteobridge,2013-07-09 06:57:00,
2013-07-09 01:02:00,68.5,61.7,29.81,SE,138,6.9,8.1,79,0.00,,,0.00,meteobridge,2013-07-09 07:02:00,
2013-07-09 01:07:00,68.4,61.5,29.81,SSE,155,4.9,8.9,79,0.00,,,0.00,meteobridge,2013-07-09 07:07:00,
2013-07-09 01:13:00,68.4,61.5,29.81,SE,145,6.0,8.1,79,0.00,,,0.00,meteobridge,2013-07-09 07:13:00,
2013-07-09 01:18:00,68.4,61.2,29.81,SE,137,0.9,6.0,78,0.00,,,0.00,meteobridge,2013-07-09 07:18:00,
2013-07-09 01:23:00,68.2,61.3,29.81,SSE,166,2.9,4.0,79,0.00,,,0.00,meteobridge,2013-07-09 07:23:00,
2013-07-09 01:28:00,68.2,61.3,29.81,South,181,4.0,4.9,79,0.00,,,0.00,meteobridge,2013-07-09 07:28:00,
2013-07-09 01:33:00,68.4,61.2,29.80,South,171,2.9,4.9,78,0.00,,,0.00,meteobridge,2013-07-09 07:33:00,
2013-07-09 01:38:00,68.4,61.2,29.80,SE,143,4.0,6.9,78,0.00,,,0.00,meteobridge,2013-07-09 07:38:00,
2013-07-09 01:43:00,68.4,61.2,29.80,SSE,148,0.9,2.9,78,0.00,,,0.00,meteobridge,2013-07-09 07:43:00,
2013-07-09 01:48:00,68.4,61.2,29.80,SE,139,4.9,6.0,78,0.00,,,0.00,meteobridge,2013-07-09 07:48:00,
2013-07-09 01:53:00,68.4,61.2,29.80,South,173,0.0,2.9,78,0.00,,,0.00,meteobridge,2013-07-09 07:53:00,
2013-07-09 01:58:00,68.4,60.8,29.80,SSE,167,0.9,4.0,77,0.00,,,0.00,meteobridge,2013-07-09 07:58:00,
2013-07-09 02:03:00,68.5,61.3,29.80,SSE,155,0.0,0.9,78,0.00,,,0.00,meteobridge,2013-07-09 08:03:00,
2013-07-09 02:08:00,68.4,61.2,29.80,SSE,157,2.0,4.0,78,0.00,,,0.00,meteobridge,2013-07-09 08:08:00,
2013-07-09 02:13:00,68.4,61.2,29.80,South,178,0.9,2.9,78,0.00,,,0.00,meteobridge,2013-07-09 08:13:00,
2013-07-09 02:18:00,68.2,61.0,29.79,South,178,0.0,2.9,78,0.00,,,0.00,meteobridge,2013-07-09 08:18:00,
2013-07-09 02:23:00,68.2,61.0,29.79,South,172,0.9,2.9,78,0.00,,,0.00,meteobridge,2013-07-09 08:23:00,
2013-07-09 02:28:00,68.0,60.8,29.79,SSE,148,2.0,4.9,78,0.00,,,0.00,meteobridge,2013-07-09 08:28:00,
2013-07-09 02:33:00,68.0,60.8,29.78,SSE,155,2.0,2.9,78,0.00,,,0.00,meteobridge,2013-07-09 08:33:00,
2013-07-09 02:38:00,68.0,60.4,29.78,South,187,0.0,0.9,77,0.00,,,0.00,meteobridge,2013-07-09 08:38:00,
2013-07-09 02:44:00,67.8,60.3,29.78,South,187,0.0,0.9,77,0.00,,,0.00,meteobridge,2013-07-09 08:44:00,
2013-07-09 02:49:00,67.8,60.6,29.78,South,187,0.0,0.0,78,0.00,,,0.00,meteobridge,2013-07-09 08:49:00,
2013-07-09 02:54:00,67.5,60.8,29.78,South,187,0.0,0.0,79,0.00,,,0.00,meteobridge,2013-07-09 08:54:00,
2013-07-09 02:59:00,67.5,60.8,29.78,South,187,0.0,0.0,79,0.00,,,0.00,meteobridge,2013-07-09 08:59:00,
2013-07-09 03:04:00,67.3,61.2,29.78,South,187,0.0,0.0,81,0.00,,,0.00,meteobridge,2013-07-09 09:04:00,
2013-07-09 03:09:00,67.3,61.5,29.78,South,187,0.0,0.0,82,0.00,,,0.00,meteobridge,2013-07-09 09:09:00,
2013-07-09 03:14:00,66.7,61.3,29.78,South,187,0.0,0.0,83,0.00,,,0.00,meteobridge,2013-07-09 09:14:00,
2013-07-09 03:20:00,66.9,61.2,29.78,South,187,0.0,0.0,82,0.00,,,0.00,meteobridge,2013-07-09 09:20:00,
2013-07-09 03:25:00,66.7,60.8,29.78,South,187,0.0,0.0,81,0.00,,,0.00,meteobridge,2013-07-09 09:25:00,
2013-07-09 03:30:00,66.7,61.0,29.78,South,187,0.0,0.0,82,0.00,,,0.00,meteobridge,2013-07-09 09:30:00,
2013-07-09 03:35:00,66.6,61.5,29.78,South,187,0.0,0.0,84,0.00,,,0.00,meteobridge,2013-07-09 09:35:00,
2013-07-09 03:40:00,66.6,61.9,29.78,South,187,0.0,0.0,85,0.00,,,0.00,meteobridge,2013-07-09 09:40:00,
2013-07-09 03:45:00,66.7,62.1,29.78,South,187,0.0,0.0,85,0.00,,,0.00,meteobridge,2013-07-09 09:45:00,
2013-07-09 03:50:00,66.6,62.2,29.78,South,187,0.0,0.0,86,0.00,,,0.00,meteobridge,2013-07-09 09:50:00,
2013-07-09 03:55:00,66.6,62.6,29.78,South,187,0.0,0.0,87,0.00,,,0.00,meteobridge,2013-07-09 09:55:00,
2013-07-09 04:01:00,66.6,62.2,29.79,South,187,0.0,0.0,86,0.00,,,0.00,meteobridge,2013-07-09 10:01:00,
2013-07-09 04:06:00,66.7,62.4,29.78,South,187,0.0,0.9,86,0.00,,,0.00,meteobridge,2013-07-09 10:06:00,
2013-07-09 04:11:00,66.6,62.2,29.78,South,187,0.0,0.0,86,0.00,,,0.00,meteobridge,2013-07-09 10:11:00,
2013-07-09 04:17:00,66.7,62.1,29.78,South,187,0.0,0.0,85,0.00,,,0.00,meteobridge,2013-07-09 10:17:00,
2013-07-09 04:22:00,66.6,62.2,29.78,South,187,0.0,0.0,86,0.00,,,0.00,meteobridge,2013-07-09 10:22:00,
2013-07-09 04:27:00,66.4,61.7,29.78,South,187,0.0,0.0,85,0.00,,,0.00,meteobridge,2013-07-09 10:27:00,
2013-07-09 04:32:00,66.6,61.9,29.78,South,187,0.0,0.0,85,0.00,,,0.00,meteobridge,2013-07-09 10:32:00,
2013-07-09 04:37:00,66.4,61.7,29.78,South,187,0.0,0.0,85,0.00,,,0.00,meteobridge,2013-07-09 10:37:00,
2013-07-09 04:42:00,66.4,61.7,29.78,South,187,0.0,0.0,85,0.00,,,0.00,meteobridge,2013-07-09 10:42:00,
2013-07-09 04:47:00,66.6,62.2,29.79,South,187,0.0,0.0,86,0.00,,,0.00,meteobridge,2013-07-09 10:47:00,
2013-07-09 04:52:00,66.2,61.9,29.79,South,187,0.0,0.0,86,0.00,,,0.00,meteobridge,2013-07-09 10:52:00,
2013-07-09 04:58:00,66.0,62.1,29.79,South,187,0.0,0.0,87,0.00,,,0.00,meteobridge,2013-07-09 10:58:00,
2013-07-09 05:03:00,66.0,62.1,29.79,South,187,0.0,0.0,87,0.00,,,0.00,meteobridge,2013-07-09 11:03:00,
2013-07-09 05:08:00,66.0,62.1,29.79,South,187,0.0,0.0,87,0.00,,,0.00,meteobridge,2013-07-09 11:08:00,
2013-07-09 05:13:00,66.4,62.1,29.79,South,187,0.0,0.0,86,0.00,,,0.00,meteobridge,2013-07-09 11:13:00,
2013-07-09 05:19:00,66.4,62.4,29.79,South,187,0.0,0.0,87,0.00,,,0.00,meteobridge,2013-07-09 11:19:00,
2013-07-09 05:24:00,66.0,62.1,29.79,South,187,0.0,0.0,87,0.00,,,0.00,meteobridge,2013-07-09 11:24:00,
2013-07-09 05:29:00,66.4,62.1,29.79,South,187,0.0,0.0,86,0.00,,,0.00,meteobridge,2013-07-09 11:29:00,
2013-07-09 05:34:00,66.4,62.1,29.80,South,187,0.0,0.0,86,0.00,,,0.00,meteobridge,2013-07-09 11:34:00,
2013-07-09 05:39:00,66.4,61.7,29.80,South,187,0.0,0.0,85,0.00,,,0.00,meteobridge,2013-07-09 11:39:00,
2013-07-09 05:44:00,66.6,61.9,29.80,South,187,0.0,0.0,85,0.00,,,0.00,meteobridge,2013-07-09 11:44:00,
2013-07-09 05:49:00,66.4,62.1,29.80,South,187,0.0,0.0,86,0.00,,,0.00,meteobridge,2013-07-09 11:49:00,
2013-07-09 05:54:00,66.0,62.1,29.80,South,187,0.0,0.0,87,0.00,,,0.00,meteobridge,2013-07-09 11:54:00,
2013-07-09 05:59:00,65.8,61.9,29.80,South,187,0.0,0.0,87,0.00,,,0.00,meteobridge,2013-07-09 11:59:00,
2013-07-09 06:04:00,65.7,62.1,29.80,South,187,0.0,0.0,88,0.00,,,0.00,meteobridge,2013-07-09 12:04:00,
2013-07-09 06:09:00,65.7,62.1,29.80,South,187,0.0,0.0,88,0.00,,,0.00,meteobridge,2013-07-09 12:09:00,
2013-07-09 06:15:00,65.7,62.1,29.81,South,187,0.0,0.0,88,0.00,,,0.00,meteobridge,2013-07-09 12:15:00,
2013-07-09 06:20:00,65.7,62.2,29.81,South,187,0.0,0.0,89,0.00,,,0.00,meteobridge,2013-07-09 12:20:00,
2013-07-09 06:25:00,65.7,62.1,29.81,South,187,0.0,0.0,88,0.00,,,0.00,meteobridge,2013-07-09 12:25:00,
2013-07-09 06:30:00,65.7,62.2,29.81,South,187,0.0,0.0,89,0.00,,,0.00,meteobridge,2013-07-09 12:30:00,
2013-07-09 06:35:00,65.8,62.2,29.82,South,187,0.0,0.0,88,0.00,,,0.00,meteobridge,2013-07-09 12:35:00,
2013-07-09 06:40:00,66.6,62.6,29.82,South,187,0.0,0.0,87,0.00,,,0.00,meteobridge,2013-07-09 12:40:00,
2013-07-09 06:45:00,66.7,62.8,29.82,South,187,0.0,0.0,87,0.00,,,0.00,meteobridge,2013-07-09 12:45:00,
2013-07-09 06:51:00,66.9,62.6,29.82,South,187,0.0,0.0,86,0.00,,,0.00,meteobridge,2013-07-09 12:51:00,
2013-07-09 06:56:00,67.5,62.4,29.82,South,187,0.0,0.0,84,0.00,,,0.00,meteobridge,2013-07-09 12:56:00,
2013-07-09 07:01:00,67.8,62.8,29.83,South,187,0.0,0.0,84,0.00,,,0.00,meteobridge,2013-07-09 13:01:00,
2013-07-09 07:06:00,68.5,62.4,29.83,South,187,0.0,0.9,81,0.00,,,0.00,meteobridge,2013-07-09 13:06:00,
2013-07-09 07:11:00,69.1,62.6,29.83,South,187,0.0,0.0,80,0.00,,,0.00,meteobridge,2013-07-09 13:11:00,
2013-07-09 07:17:00,69.4,62.2,29.83,East,94,0.0,0.9,78,0.00,,,0.00,meteobridge,2013-07-09 13:17:00,
2013-07-09 07:22:00,69.6,62.1,29.83,East,94,0.0,2.0,77,0.00,,,0.00,meteobridge,2013-07-09 13:22:00,
2013-07-09 07:27:00,70.0,61.7,29.83,East,94,0.0,0.9,75,0.00,,,0.00,meteobridge,2013-07-09 13:27:00,
2013-07-09 07:32:00,70.0,61.7,29.84,East,94,0.0,0.0,75,0.00,,,0.00,meteobridge,2013-07-09 13:32:00,
2013-07-09 07:37:00,70.2,61.5,29.84,East,94,0.0,0.0,74,0.00,,,0.00,meteobridge,2013-07-09 13:37:00,
2013-07-09 07:42:00,70.5,61.9,29.84,East,94,0.0,0.0,74,0.00,,,0.00,meteobridge,2013-07-09 13:42:00,
2013-07-09 07:48:00,70.5,61.5,29.84,East,94,0.9,0.9,73,0.00,,,0.00,meteobridge,2013-07-09 13:48:00,
2013-07-09 07:53:00,71.1,61.5,29.84,East,94,0.0,0.9,72,0.00,,,0.00,meteobridge,2013-07-09 13:53:00,
2013-07-09 07:58:00,71.8,61.9,29.85,East,94,0.0,2.0,71,0.00,,,0.00,meteobridge,2013-07-09 13:58:00,
2013-07-09 08:03:00,72.1,63.0,29.85,East,94,0.9,0.9,73,0.00,,,0.00,meteobridge,2013-07-09 14:03:00,
2013-07-09 08:08:00,73.2,62.1,29.85,East,90,0.9,0.9,68,0.00,,,0.00,meteobridge,2013-07-09 14:08:00,
2013-07-09 08:13:00,73.2,62.1,29.85,NNE,15,0.0,2.0,68,0.00,,,0.00,meteobridge,2013-07-09 14:13:00,
2013-07-09 08:18:00,73.2,61.2,29.85,East,86,0.0,2.0,66,0.00,,,0.00,meteobridge,2013-07-09 14:18:00,
2013-07-09 08:23:00,73.2,61.2,29.85,ENE,65,0.9,0.9,66,0.00,,,0.00,meteobridge,2013-07-09 14:23:00,
2013-07-09 08:29:00,73.8,61.7,29.85,ENE,65,0.9,0.9,66,0.00,,,0.00,meteobridge,2013-07-09 14:29:00,
2013-07-09 08:34:00,74.1,62.4,29.85,NE,36,0.9,2.0,67,0.00,,,0.00,meteobridge,2013-07-09 14:34:00,
2013-07-09 08:39:00,75.0,63.0,29.85,NNE,32,0.0,0.9,66,0.00,,,0.00,meteobridge,2013-07-09 14:39:00,
2013-07-09 08:44:00,75.2,61.3,29.85,NE,40,0.0,0.9,62,0.00,,,0.00,meteobridge,2013-07-09 14:44:00,
2013-07-09 08:49:00,75.6,61.2,29.85,NE,40,0.0,0.9,61,0.00,,,0.00,meteobridge,2013-07-09 14:49:00,
2013-07-09 08:55:00,75.6,59.7,29.85,NE,39,0.0,0.9,58,0.00,,,0.00,meteobridge,2013-07-09 14:55:00,
2013-07-09 09:00:00,75.2,61.3,29.85,NE,39,0.0,0.9,62,0.00,,,0.00,meteobridge,2013-07-09 15:00:00,
2013-07-09 09:05:00,75.9,60.1,29.85,NE,39,0.0,0.0,58,0.00,,,0.00,meteobridge,2013-07-09 15:05:00,
2013-07-09 09:10:00,75.6,59.7,29.85,SW,223,0.9,2.9,58,0.00,,,0.00,meteobridge,2013-07-09 15:10:00,
2013-07-09 09:15:00,75.9,60.1,29.85,WSW,242,0.0,2.0,58,0.00,,,0.00,meteobridge,2013-07-09 15:15:00,
2013-07-09 09:20:00,75.9,59.5,29.85,SW,235,0.0,2.0,57,0.00,,,0.00,meteobridge,2013-07-09 15:20:00,
2013-07-09 09:25:00,76.5,60.1,29.85,SSE,162,2.0,2.0,57,0.00,,,0.00,meteobridge,2013-07-09 15:25:00,
2013-07-09 09:30:00,76.5,60.6,29.85,SSE,161,0.9,0.9,58,0.00,,,0.00,meteobridge,2013-07-09 15:30:00,
2013-07-09 09:35:00,77.2,60.8,29.85,WSW,242,0.9,4.9,57,0.00,,,0.00,meteobridge,2013-07-09 15:35:00,
2013-07-09 09:40:00,77.5,60.1,29.84,NW,309,0.0,0.9,55,0.00,,,0.00,meteobridge,2013-07-09 15:40:00,
2013-07-09 09:45:00,77.7,59.2,29.84,WSW,246,2.9,4.0,53,0.00,,,0.00,meteobridge,2013-07-09 15:45:00,
2013-07-09 09:50:00,77.7,59.7,29.84,WSW,238,0.9,2.0,54,0.00,,,0.00,meteobridge,2013-07-09 15:50:00,
2013-07-09 09:55:00,77.7,60.8,29.84,SW,228,2.0,2.0,56,0.00,,,0.00,meteobridge,2013-07-09 15:55:00,
2013-07-09 10:00:00,79.0,61.5,29.84,SSW,211,2.0,4.0,55,0.00,,,0.00,meteobridge,2013-07-09 16:00:00,
2013-07-09 10:06:00,79.3,60.8,29.84,WSW,241,0.9,2.0,53,0.00,,,0.00,meteobridge,2013-07-09 16:06:00,
2013-07-09 10:11:00,79.5,61.3,29.84,SW,215,4.0,6.0,54,0.00,,,0.00,meteobridge,2013-07-09 16:11:00,
2013-07-09 10:16:00,78.6,61.5,29.84,SSW,211,4.0,4.9,56,0.00,,,0.00,meteobridge,2013-07-09 16:16:00,
2013-07-09 10:21:00,78.6,60.6,29.84,SSE,156,2.9,6.9,54,0.00,,,0.00,meteobridge,2013-07-09 16:21:00,
2013-07-09 10:26:00,78.4,61.5,29.84,SW,234,2.0,4.9,56,0.00,,,0.00,meteobridge,2013-07-09 16:26:00,
2013-07-09 10:31:00,78.6,61.2,29.84,SSW,211,2.0,4.9,55,0.00,,,0.00,meteobridge,2013-07-09 16:31:00,
2013-07-09 10:36:00,79.5,61.9,29.84,SW,228,0.9,4.9,55,0.00,,,0.00,meteobridge,2013-07-09 16:36:00,
2013-07-09 10:41:00,79.5,60.4,29.84,SW,217,2.0,4.9,52,0.00,,,0.00,meteobridge,2013-07-09 16:41:00,
2013-07-09 10:46:00,81.0,63.3,29.84,South,176,0.0,2.0,55,0.00,,,0.00,meteobridge,2013-07-09 16:46:00,
2013-07-09 10:51:00,80.4,59.5,29.84,East,82,2.0,4.0,49,0.00,,,0.00,meteobridge,2013-07-09 16:51:00,
2013-07-09 10:57:00,81.1,60.8,29.84,SSW,211,2.9,4.0,50,0.00,,,0.00,meteobridge,2013-07-09 16:57:00,
2013-07-09 11:02:00,81.5,60.4,29.84,SSE,161,2.9,4.9,49,0.00,,,0.00,meteobridge,2013-07-09 17:02:00,
2013-07-09 11:07:00,81.1,60.8,29.84,SSE,150,2.0,6.0,50,0.00,,,0.00,meteobridge,2013-07-09 17:07:00,
2013-07-09 11:12:00,81.3,60.3,29.84,South,169,0.0,4.0,49,0.00,,,0.00,meteobridge,2013-07-09 17:12:00,
2013-07-09 11:17:00,81.7,60.1,29.83,WSW,252,0.9,4.9,48,0.00,,,0.00,meteobridge,2013-07-09 17:17:00,
2013-07-09 11:22:00,82.0,59.2,29.83,SW,225,0.9,4.0,46,0.00,,,0.00,meteobridge,2013-07-09 17:22:00,
2013-07-09 11:27:00,81.7,60.6,29.83,SSW,213,6.0,6.0,49,0.00,,,0.00,meteobridge,2013-07-09 17:27:00,
2013-07-09 11:32:00,81.7,58.3,29.83,WSW,244,2.9,6.0,45,0.00,,,0.00,meteobridge,2013-07-09 17:32:00,
2013-07-09 11:37:00,82.0,59.2,29.83,SW,217,2.9,4.9,46,0.00,,,0.00,meteobridge,2013-07-09 17:37:00,
2013-07-09 11:42:00,82.8,58.6,29.83,SW,229,4.9,8.1,44,0.00,,,0.00,meteobridge,2013-07-09 17:42:00,
2013-07-09 11:47:00,82.4,58.3,29.83,WNW,289,2.0,8.1,44,0.00,,,0.00,meteobridge,2013-07-09 17:47:00,
2013-07-09 11:52:00,82.6,59.0,29.83,SSE,163,0.9,4.0,45,0.00,,,0.00,meteobridge,2013-07-09 17:52:00,
2013-07-09 11:57:00,83.1,57.0,29.83,West,268,2.0,6.0,41,0.00,,,0.00,meteobridge,2013-07-09 17:57:00,
2013-07-09 12:02:00,83.8,58.3,29.83,NW,316,2.0,6.0,42,0.00,,,0.00,meteobridge,2013-07-09 18:02:00,
2013-07-09 12:07:00,83.8,54.0,29.83,SSE,155,2.0,6.0,36,0.00,,,0.00,meteobridge,2013-07-09 18:07:00,
2013-07-09 12:12:00,84.4,57.4,29.82,West,275,2.0,2.9,40,0.00,,,0.00,meteobridge,2013-07-09 18:12:00,
2013-07-09 12:17:00,84.6,56.8,29.82,South,186,2.9,6.9,39,0.00,,,0.00,meteobridge,2013-07-09 18:17:00,
2013-07-09 12:22:00,84.4,57.4,29.82,SW,221,4.9,6.9,40,0.00,,,0.00,meteobridge,2013-07-09 18:22:00,
2013-07-09 12:27:00,83.7,57.4,29.82,SSE,162,0.9,4.9,41,0.00,,,0.00,meteobridge,2013-07-09 18:27:00,
2013-07-09 12:32:00,83.7,56.1,29.82,SSW,203,0.0,4.9,39,0.00,,,0.00,meteobridge,2013-07-09 18:32:00,
2013-07-09 12:38:00,84.7,56.3,29.82,SSW,212,2.0,4.9,38,0.00,,,0.00,meteobridge,2013-07-09 18:38:00,
2013-07-09 12:43:00,84.7,56.3,29.81,ESE,118,0.0,2.0,38,0.00,,,0.00,meteobridge,2013-07-09 18:43:00,
2013-07-09 12:48:00,85.6,58.5,29.81,SW,229,8.9,8.9,40,0.00,,,0.00,meteobridge,2013-07-09 18:48:00,
2013-07-09 12:53:00,84.9,55.8,29.81,South,188,2.0,6.9,37,0.00,,,0.00,meteobridge,2013-07-09 18:53:00,
2013-07-09 12:58:00,85.3,55.2,29.81,SE,138,0.9,4.9,36,0.00,,,0.00,meteobridge,2013-07-09 18:58:00,
2013-07-09 13:03:00,86.5,57.2,29.80,SSE,157,4.9,4.9,37,0.00,,,0.00,meteobridge,2013-07-09 19:03:00,
2013-07-09 13:08:00,86.4,56.3,29.80,ESE,109,0.9,2.0,36,0.00,,,0.00,meteobridge,2013-07-09 19:08:00,
2013-07-09 13:13:00,86.4,57.7,29.80,SW,231,2.9,4.9,38,0.00,,,0.00,meteobridge,2013-07-09 19:13:00,
2013-07-09 13:18:00,86.5,57.9,29.80,North,355,2.0,4.0,38,0.00,,,0.00,meteobridge,2013-07-09 19:18:00,
2013-07-09 13:23:00,88.0,59.2,29.79,SSW,192,2.0,4.0,38,0.00,,,0.00,meteobridge,2013-07-09 19:23:00,
2013-07-09 13:28:00,87.4,57.2,29.79,West,275,2.9,4.9,36,0.00,,,0.00,meteobridge,2013-07-09 19:28:00,
2013-07-09 13:33:00,87.6,58.1,29.79,SSW,207,2.9,4.9,37,0.00,,,0.00,meteobridge,2013-07-09 19:33:00,
2013-07-09 13:38:00,86.5,56.5,29.79,East,92,2.0,4.9,36,0.00,,,0.00,meteobridge,2013-07-09 19:38:00,
2013-07-09 13:43:00,87.3,56.3,29.78,SW,223,2.9,4.9,35,0.00,,,0.00,meteobridge,2013-07-09 19:43:00,
2013-07-09 13:48:00,87.6,56.7,29.78,SE,145,2.9,2.9,35,0.00,,,0.00,meteobridge,2013-07-09 19:48:00,
2013-07-09 13:53:00,88.7,57.6,29.78,SW,232,0.0,2.9,35,0.00,,,0.00,meteobridge,2013-07-09 19:53:00,
2013-07-09 13:58:00,88.9,56.1,29.78,WSW,238,4.0,6.9,33,0.00,,,0.00,meteobridge,2013-07-09 19:58:00,
2013-07-09 14:03:00,88.5,55.8,29.78,SSW,198,0.9,4.0,33,0.00,,,0.00,meteobridge,2013-07-09 20:03:00,
2013-07-09 14:08:00,89.2,55.6,29.78,NW,304,0.9,6.0,32,0.00,,,0.00,meteobridge,2013-07-09 20:08:00,
2013-07-09 14:14:00,89.2,56.3,29.77,NNW,331,2.9,4.9,33,0.00,,,0.00,meteobridge,2013-07-09 20:14:00,
2013-07-09 14:19:00,89.2,55.6,29.77,East,88,0.0,2.0,32,0.00,,,0.00,meteobridge,2013-07-09 20:19:00,
2013-07-09 14:24:00,89.8,57.7,29.76,West,263,0.9,4.0,34,0.00,,,0.00,meteobridge,2013-07-09 20:24:00,
2013-07-09 14:29:00,90.0,55.2,29.76,NNE,27,0.9,4.9,31,0.00,,,0.00,meteobridge,2013-07-09 20:29:00,
2013-07-09 14:34:00,89.4,55.8,29.76,WNW,296,0.0,2.0,32,0.00,,,0.00,meteobridge,2013-07-09 20:34:00,
2013-07-09 14:39:00,90.7,56.8,29.76,SW,218,4.0,4.9,32,0.00,,,0.00,meteobridge,2013-07-09 20:39:00,
2013-07-09 14:44:00,90.3,55.6,29.75,West,277,0.9,4.0,31,0.00,,,0.00,meteobridge,2013-07-09 20:44:00,
2013-07-09 14:49:00,91.0,55.2,29.75,NE,47,0.9,2.9,30,0.00,,,0.00,meteobridge,2013-07-09 20:49:00,
2013-07-09 14:54:00,92.1,57.2,29.75,WSW,243,2.9,2.9,31,0.00,,,0.00,meteobridge,2013-07-09 20:54:00,
2013-07-09 14:59:00,92.7,55.8,29.75,NW,309,2.0,4.0,29,0.00,,,0.00,meteobridge,2013-07-09 20:59:00,
2013-07-09 15:04:00,91.9,56.1,29.75,NNW,343,2.0,4.9,30,0.00,,,0.00,meteobridge,2013-07-09 21:04:00,
2013-07-09 15:09:00,92.5,56.5,29.74,ESE,109,2.0,4.9,30,0.00,,,0.00,meteobridge,2013-07-09 21:09:00,
2013-07-09 15:14:00,92.5,54.7,29.74,WSW,256,6.0,6.0,28,0.00,,,0.00,meteobridge,2013-07-09 21:14:00,
2013-07-09 15:19:00,91.6,53.8,29.74,ESE,106,0.0,4.9,28,0.00,,,0.00,meteobridge,2013-07-09 21:19:00,
2013-07-09 15:24:00,93.2,56.3,29.74,NW,325,0.9,4.9,29,0.00,,,0.00,meteobridge,2013-07-09 21:24:00,
2013-07-09 15:29:00,93.6,55.6,29.73,SSW,194,2.9,4.0,28,0.00,,,0.00,meteobridge,2013-07-09 21:29:00,
2013-07-09 15:34:00,94.3,55.2,29.73,ENE,76,0.0,2.0,27,0.00,,,0.00,meteobridge,2013-07-09 21:34:00,
2013-07-09 15:39:00,94.5,54.3,29.73,WNW,294,0.9,2.9,26,0.00,,,0.00,meteobridge,2013-07-09 21:39:00,
2013-07-09 15:44:00,94.6,53.4,29.73,SW,214,4.9,4.9,25,0.00,,,0.00,meteobridge,2013-07-09 21:44:00,
2013-07-09 15:49:00,94.5,55.4,29.72,NNW,346,2.0,2.9,27,0.00,,,0.00,meteobridge,2013-07-09 21:49:00,
2013-07-09 15:55:00,94.3,53.1,29.72,WSW,243,2.0,2.9,25,0.00,,,0.00,meteobridge,2013-07-09 21:55:00,
2013-07-09 16:00:00,93.0,50.9,29.72,ESE,108,0.9,2.0,24,0.00,,,0.00,meteobridge,2013-07-09 22:00:00,
2013-07-09 16:05:00,93.6,52.5,29.71,NW,320,0.9,4.0,25,0.00,,,0.00,meteobridge,2013-07-09 22:05:00,
2013-07-09 16:10:00,95.7,54.3,29.71,WNW,296,0.9,4.0,25,0.00,,,0.00,meteobridge,2013-07-09 22:10:00,
2013-07-09 16:15:00,94.5,52.2,29.71,WSW,250,2.9,6.0,24,0.00,,,0.00,meteobridge,2013-07-09 22:15:00,
2013-07-09 16:20:00,95.4,54.0,29.71,WSW,237,4.0,4.0,25,0.00,,,0.00,meteobridge,2013-07-09 22:20:00,
2013-07-09 16:25:00,97.0,51.8,29.70,West,262,2.0,4.0,22,0.00,,,0.00,meteobridge,2013-07-09 22:25:00,
2013-07-09 16:30:00,97.0,53.1,29.70,SW,230,2.9,2.9,23,0.00,,,0.00,meteobridge,2013-07-09 22:30:00,
2013-07-09 16:35:00,95.0,50.2,29.70,SE,139,0.0,2.9,22,0.00,,,0.00,meteobridge,2013-07-09 22:35:00,
2013-07-09 16:40:00,94.3,53.1,29.70,WNW,290,0.9,2.0,25,0.00,,,0.00,meteobridge,2013-07-09 22:40:00,
2013-07-09 16:45:00,93.7,51.4,29.70,NW,307,0.9,4.0,24,0.00,,,0.00,meteobridge,2013-07-09 22:45:00,
2013-07-09 16:50:00,93.6,52.5,29.70,WSW,252,0.9,4.0,25,0.00,,,0.00,meteobridge,2013-07-09 22:50:00,
2013-07-09 16:55:00,93.6,51.3,29.70,NNW,342,2.0,4.0,24,0.00,,,0.00,meteobridge,2013-07-09 22:55:00,
2013-07-09 17:00:00,93.9,50.5,29.70,NNW,342,2.0,4.9,23,0.00,,,0.00,meteobridge,2013-07-09 23:00:00,
2013-07-09 17:05:00,94.1,51.8,29.70,NW,324,2.9,6.9,24,0.00,,,0.00,meteobridge,2013-07-09 23:05:00,
2013-07-09 17:10:00,93.7,51.4,29.70,North,5,4.0,12.1,24,0.00,,,0.00,meteobridge,2013-07-09 23:10:00,
2013-07-09 17:15:00,92.1,52.3,29.70,NNE,15,2.0,6.9,26,0.00,,,0.00,meteobridge,2013-07-09 23:15:00,
2013-07-09 17:20:00,92.3,52.5,29.70,ESE,122,2.0,8.1,26,0.00,,,0.00,meteobridge,2013-07-09 23:20:00,
2013-07-09 17:25:00,91.9,52.2,29.70,ESE,103,8.9,10.1,26,0.00,,,0.00,meteobridge,2013-07-09 23:25:00,
2013-07-09 17:30:00,90.3,49.6,29.71,SE,138,14.1,17.0,25,0.00,,,0.00,meteobridge,2013-07-09 23:30:00,
2013-07-09 17:35:00,87.4,51.3,29.71,East,81,4.9,10.1,29,0.00,,,0.00,meteobridge,2013-07-09 23:35:00,
2013-07-09 17:40:00,86.2,52.0,29.71,East,92,10.1,13.0,31,0.00,,,0.00,meteobridge,2013-07-09 23:40:00,
2013-07-09 17:45:00,84.9,52.5,29.71,SSW,195,4.9,8.9,33,0.00,,,0.00,meteobridge,2013-07-09 23:45:00,
2013-07-09 17:50:00,83.8,53.2,29.71,SSE,157,6.0,17.0,35,0.00,,,0.00,meteobridge,2013-07-09 23:50:00,
2013-07-09 17:55:00,83.1,54.1,29.70,SSE,151,2.0,14.1,37,0.00,,,0.00,meteobridge,2013-07-09 23:55:00,
2013-07-09 18:00:00,83.1,54.1,29.71,ESE,119,0.9,8.9,37,0.00,,,0.00,meteobridge,2013-07-10 00:00:00,
2013-07-09 18:05:00,83.5,53.8,29.72,NE,44,4.0,8.9,36,0.00,,,0.00,meteobridge,2013-07-10 00:05:00,
2013-07-09 18:11:00,83.7,54.0,29.73,NNE,17,2.0,8.1,36,0.00,,,0.00,meteobridge,2013-07-10 00:11:00,
2013-07-09 18:16:00,84.6,54.0,29.73,NNW,333,4.9,10.1,35,0.00,,,0.00,meteobridge,2013-07-10 00:16:00,
2013-07-09 18:21:00,84.7,53.2,29.73,NNE,16,6.0,15.0,34,0.00,,,0.00,meteobridge,2013-07-10 00:21:00,
2013-07-09 18:26:00,84.4,52.2,29.73,NNE,15,2.0,8.9,33,0.00,,,0.00,meteobridge,2013-07-10 00:26:00,
2013-07-09 18:31:00,84.0,51.8,29.73,NE,44,2.0,4.9,33,0.00,,,0.00,meteobridge,2013-07-10 00:31:00,
2013-07-09 18:36:00,84.0,51.8,29.74,ESE,118,0.9,8.1,33,0.00,,,0.00,meteobridge,2013-07-10 00:36:00,
2013-07-09 18:41:00,84.4,51.3,29.74,East,97,0.9,6.0,32,0.00,,,0.00,meteobridge,2013-07-10 00:41:00,
2013-07-09 18:46:00,84.7,51.6,29.74,East,97,0.0,2.0,32,0.00,,,0.00,meteobridge,2013-07-10 00:46:00,
2013-07-09 18:51:00,84.9,51.8,29.74,East,85,0.0,4.9,32,0.00,,,0.00,meteobridge,2013-07-10 00:51:00,
2013-07-09 18:56:00,84.9,50.9,29.74,NE,51,2.0,4.9,31,0.00,,,0.00,meteobridge,2013-07-10 00:56:00,
2013-07-09 19:01:00,85.1,52.0,29.74,East,92,2.0,2.0,32,0.00,,,0.00,meteobridge,2013-07-10 01:01:00,
2013-07-09 19:06:00,84.9,53.4,29.73,SE,140,2.9,2.9,34,0.00,,,0.00,meteobridge,2013-07-10 01:06:00,
2013-07-09 19:12:00,84.7,53.2,29.73,SSE,153,0.9,2.0,34,0.00,,,0.00,meteobridge,2013-07-10 01:12:00,
2013-07-09 19:17:00,84.6,51.4,29.72,ESE,123,0.0,4.9,32,0.00,,,0.00,meteobridge,2013-07-10 01:17:00,
2013-07-09 19:22:00,84.6,51.4,29.72,SE,140,2.0,8.1,32,0.00,,,0.00,meteobridge,2013-07-10 01:22:00,
2013-07-09 19:27:00,84.6,52.3,29.72,SSE,148,0.0,4.9,33,0.00,,,0.00,meteobridge,2013-07-10 01:27:00,
2013-07-09 19:32:00,84.6,51.4,29.72,SSE,152,6.9,6.9,32,0.00,,,0.00,meteobridge,2013-07-10 01:32:00,
2013-07-09 19:37:00,84.4,52.2,29.72,South,178,2.0,8.1,33,0.00,,,0.00,meteobridge,2013-07-10 01:37:00,
2013-07-09 19:42:00,83.8,53.2,29.72,SSE,149,4.0,8.1,35,0.00,,,0.00,meteobridge,2013-07-10 01:42:00,
2013-07-09 19:47:00,83.5,52.9,29.72,SSE,147,2.0,6.9,35,0.00,,,0.00,meteobridge,2013-07-10 01:47:00,
2013-07-09 19:52:00,82.9,54.0,29.72,SW,223,0.0,2.0,37,0.00,,,0.00,meteobridge,2013-07-10 01:52:00,
2013-07-09 19:57:00,82.9,53.2,29.72,SW,223,0.0,0.9,36,0.00,,,0.00,meteobridge,2013-07-10 01:57:00,
2013-07-09 20:02:00,82.8,53.8,29.72,SW,223,0.0,0.0,37,0.00,,,0.00,meteobridge,2013-07-10 02:02:00,
2013-07-09 20:07:00,82.8,53.1,29.71,SW,223,0.0,0.9,36,0.00,,,0.00,meteobridge,2013-07-10 02:07:00,
2013-07-09 20:12:00,82.6,54.3,29.71,SW,223,0.9,0.9,38,0.00,,,0.00,meteobridge,2013-07-10 02:12:00,
2013-07-09 20:17:00,82.4,53.6,29.71,SSE,147,0.9,4.9,37,0.00,,,0.00,meteobridge,2013-07-10 02:17:00,
2013-07-09 20:22:00,82.6,52.9,29.70,SSE,148,2.0,4.9,36,0.00,,,0.00,meteobridge,2013-07-10 02:22:00,
2013-07-09 20:27:00,82.8,53.1,29.70,East,101,2.9,4.0,36,0.00,,,0.00,meteobridge,2013-07-10 02:27:00,
2013-07-09 20:32:00,82.6,52.9,29.70,SSE,152,0.9,4.9,36,0.00,,,0.00,meteobridge,2013-07-10 02:32:00,
2013-07-09 20:37:00,82.2,53.4,29.70,SSE,159,2.0,4.0,37,0.00,,,0.00,meteobridge,2013-07-10 02:37:00,
2013-07-09 20:42:00,82.0,54.0,29.70,East,99,0.0,2.0,38,0.00,,,0.00,meteobridge,2013-07-10 02:42:00,
2013-07-09 20:47:00,82.0,54.0,29.70,ESE,108,0.9,0.9,38,0.00,,,0.00,meteobridge,2013-07-10 02:47:00,
2013-07-09 20:53:00,82.0,54.0,29.71,ESE,104,0.0,0.9,38,0.00,,,0.00,meteobridge,2013-07-10 02:53:00,
2013-07-09 20:58:00,82.0,54.0,29.71,ESE,104,0.0,0.0,38,0.00,,,0.00,meteobridge,2013-07-10 02:58:00,
2013-07-09 21:03:00,81.9,55.2,29.71,ESE,104,0.0,0.0,40,0.00,,,0.00,meteobridge,2013-07-10 03:03:00,
2013-07-09 21:08:00,81.1,55.2,29.72,ESE,104,0.9,0.9,41,0.00,,,0.00,meteobridge,2013-07-10 03:08:00,
2013-07-09 21:13:00,81.3,54.7,29.72,West,259,0.0,0.9,40,0.00,,,0.00,meteobridge,2013-07-10 03:13:00,
2013-07-09 21:19:00,81.9,53.8,29.72,West,259,0.9,0.9,38,0.00,,,0.00,meteobridge,2013-07-10 03:19:00,
2013-07-09 21:24:00,81.9,54.5,29.73,NW,305,0.0,0.0,39,0.00,,,0.00,meteobridge,2013-07-10 03:24:00,
2013-07-09 21:29:00,81.3,55.4,29.74,NW,305,0.0,0.0,41,0.00,,,0.00,meteobridge,2013-07-10 03:29:00,
2013-07-09 21:35:00,81.1,55.9,29.75,NW,305,0.0,0.0,42,0.00,,,0.00,meteobridge,2013-07-10 03:35:00,
2013-07-09 21:40:00,81.1,56.5,29.76,NW,305,0.0,0.0,43,0.00,,,0.00,meteobridge,2013-07-10 03:40:00,
2013-07-09 21:45:00,81.3,56.7,29.76,NW,305,0.0,0.0,43,0.00,,,0.00,meteobridge,2013-07-10 03:45:00,
2013-07-09 21:50:00,81.0,56.3,29.76,NW,305,0.0,0.9,43,0.00,,,0.00,meteobridge,2013-07-10 03:50:00,
2013-07-09 21:55:00,81.0,56.3,29.76,NW,305,0.0,0.9,43,0.00,,,0.00,meteobridge,2013-07-10 03:55:00,
2013-07-09 22:00:00,81.1,55.9,29.76,NW,305,0.9,0.9,42,0.00,,,0.00,meteobridge,2013-07-10 04:00:00,
2013-07-09 22:01:00,81.1,55.9,29.76,NW,305,0.0,0.9,42,0.00,,,0.00,meteobridge,2013-07-10 04:01:00,
2013-07-09 22:02:00,81.1,56.5,29.76,NW,305,0.0,0.9,43,0.00,,,0.00,meteobridge,2013-07-10 04:02:00,
2013-07-09 22:04:00,81.0,55.8,29.76,NW,305,0.0,0.9,42,0.00,,,0.00,meteobridge,2013-07-10 04:04:00,
2013-07-09 22:09:00,80.6,56.7,29.77,NW,313,0.0,0.9,44,0.00,,,0.00,meteobridge,2013-07-10 04:09:00,
2013-07-09 22:14:00,80.6,56.1,29.77,NW,313,0.0,0.0,43,0.00,,,0.00,meteobridge,2013-07-10 04:14:00,
2013-07-09 22:20:00,80.6,56.1,29.77,NW,313,0.0,0.9,43,0.00,,,0.00,meteobridge,2013-07-10 04:20:00,
2013-07-09 22:25:00,80.8,56.1,29.77,NW,313,0.0,0.9,43,0.00,,,0.00,meteobridge,2013-07-10 04:25:00,
2013-07-09 22:30:00,81.1,55.9,29.77,South,180,2.0,4.9,42,0.00,,,0.00,meteobridge,2013-07-10 04:30:00,
2013-07-09 22:35:00,81.7,54.3,29.77,SE,140,0.9,4.0,39,0.00,,,0.00,meteobridge,2013-07-10 04:35:00,
2013-07-09 22:40:00,82.0,53.2,29.77,SE,133,4.9,4.9,37,0.00,,,0.00,meteobridge,2013-07-10 04:40:00,
2013-07-09 22:45:00,82.4,53.6,29.78,ESE,122,4.9,12.1,37,0.00,,,0.00,meteobridge,2013-07-10 04:45:00,
2013-07-09 22:50:00,82.6,52.9,29.77,SE,131,2.9,6.9,36,0.00,,,0.00,meteobridge,2013-07-10 04:50:00,
2013-07-09 22:55:00,82.2,53.4,29.77,SSE,150,0.9,4.0,37,0.00,,,0.00,meteobridge,2013-07-10 04:55:00,
2013-07-09 23:00:00,81.9,53.1,29.77,East,94,2.9,4.9,37,0.00,,,0.00,meteobridge,2013-07-10 05:00:00,
2013-07-09 23:05:00,81.7,53.6,29.76,East,94,4.9,8.9,38,0.00,,,0.00,meteobridge,2013-07-10 05:05:00,
2013-07-09 23:10:00,81.7,52.9,29.76,East,101,2.9,8.9,37,0.00,,,0.00,meteobridge,2013-07-10 05:10:00,
2013-07-09 23:15:00,81.3,52.5,29.75,SE,132,13.0,14.1,37,0.00,,,0.00,meteobridge,2013-07-10 05:15:00,
2013-07-09 23:20:00,81.3,52.5,29.75,SSE,155,4.0,8.9,37,0.00,,,0.00,meteobridge,2013-07-10 05:20:00,
2013-07-09 23:25:00,81.1,52.3,29.76,ESE,121,4.9,8.1,37,0.00,,,0.00,meteobridge,2013-07-10 05:25:00,
2013-07-09 23:30:00,81.0,52.9,29.76,East,98,2.9,6.9,38,0.00,,,0.00,meteobridge,2013-07-10 05:30:00,
2013-07-09 23:35:00,81.0,52.2,29.76,SE,142,4.0,8.1,37,0.00,,,0.00,meteobridge,2013-07-10 05:35:00,
2013-07-09 23:40:00,80.8,52.2,29.76,SSE,159,2.9,8.9,37,0.00,,,0.00,meteobridge,2013-07-10 05:40:00,
2013-07-09 23:45:00,80.8,52.2,29.76,SE,130,4.9,8.1,37,0.00,,,0.00,meteobridge,2013-07-10 05:45:00,
2013-07-09 23:50:00,80.8,52.2,29.77,SE,132,2.9,8.1,37,0.00,,,0.00,meteobridge,2013-07-10 05:50:00,
2013-07-09 23:55:00,80.8,52.2,29.77,SE,145,6.0,10.1,37,0.00,,,0.00,meteobridge,2013-07-10 05:55:00,